sensor_id;sensor_type;location;lat;lon;timestamp;pressure;altitude;pressure_sealevel;temperature;humidity
15932;BME280;8065;49.520;11.284;2023-05-08T00:01:51;97858.75;;;16.37;64.45
15932;BME280;8065;49.520;11.284;2023-05-08T00:04:18;97857.53;;;16.35;64.44
15932;BME280;8065;49.520;11.284;2023-05-08T00:06:44;97860.06;;;16.28;64.62
15932;BME280;8065;49.520;11.284;2023-05-08T00:09:12;97868.03;;;16.40;64.26
15932;BME280;8065;49.520;11.284;2023-05-08T00:11:39;97859.16;;;16.55;63.64
15932;BME280;8065;49.520;11.284;2023-05-08T00:14:05;97860.56;;;16.49;63.99
15932;BME280;8065;49.520;11.284;2023-05-08T00:16:32;97857.88;;;16.49;63.94
15932;BME280;8065;49.520;11.284;2023-05-08T00:18:58;97866.09;;;16.56;63.85
15932;BME280;8065;49.520;11.284;2023-05-08T00:21:25;97866.09;;;16.56;63.58
15932;BME280;8065;49.520;11.284;2023-05-08T00:23:51;97866.88;;;16.57;63.43
15932;BME280;8065;49.520;11.284;2023-05-08T00:26:19;97865.84;;;16.46;64.08
15932;BME280;8065;49.520;11.284;2023-05-08T00:28:46;97865.22;;;16.52;63.52
15932;BME280;8065;49.520;11.284;2023-05-08T00:31:13;97868.78;;;16.56;63.26
15932;BME280;8065;49.520;11.284;2023-05-08T00:33:39;97870.75;;;16.59;63.36
15932;BME280;8065;49.520;11.284;2023-05-08T00:36:06;97856.91;;;16.57;63.33
15932;BME280;8065;49.520;11.284;2023-05-08T00:38:34;97864.34;;;16.48;63.51
15932;BME280;8065;49.520;11.284;2023-05-08T00:41:01;97861.28;;;16.46;63.63
15932;BME280;8065;49.520;11.284;2023-05-08T00:43:29;97860.22;;;16.35;63.84
15932;BME280;8065;49.520;11.284;2023-05-08T00:45:59;97863.69;;;16.20;64.04
15932;BME280;8065;49.520;11.284;2023-05-08T00:48:27;97861.78;;;16.20;63.88
15932;BME280;8065;49.520;11.284;2023-05-08T00:50:55;97866.00;;;16.05;63.99
15932;BME280;8065;49.520;11.284;2023-05-08T00:53:22;97864.31;;;15.85;64.54
15932;BME280;8065;49.520;11.284;2023-05-08T00:55:51;97866.66;;;15.59;65.11
15932;BME280;8065;49.520;11.284;2023-05-08T00:58:18;97863.81;;;15.95;64.21
15932;BME280;8065;49.520;11.284;2023-05-08T01:00:46;97863.22;;;15.74;65.28
15932;BME280;8065;49.520;11.284;2023-05-08T01:03:13;97867.22;;;15.80;65.39
15932;BME280;8065;49.520;11.284;2023-05-08T01:05:40;97871.06;;;15.67;65.22
15932;BME280;8065;49.520;11.284;2023-05-08T01:08:06;97871.06;;;15.67;65.71
15932;BME280;8065;49.520;11.284;2023-05-08T01:10:41;97863.88;;;15.83;64.74
15932;BME280;8065;49.520;11.284;2023-05-08T01:13:14;97866.16;;;15.69;65.50
15932;BME280;8065;49.520;11.284;2023-05-08T01:15:49;97872.50;;;15.77;65.52
15932;BME280;8065;49.520;11.284;2023-05-08T01:18:18;97874.72;;;15.74;65.68
15932;BME280;8065;49.520;11.284;2023-05-08T01:20:52;97877.88;;;15.36;66.99
15932;BME280;8065;49.520;11.284;2023-05-08T01:23:55;97874.13;;;15.53;66.70
15932;BME280;8065;49.520;11.284;2023-05-08T01:26:46;97878.59;;;15.49;66.28
15932;BME280;8065;49.520;11.284;2023-05-08T01:29:42;97882.69;;;15.31;66.79
15932;BME280;8065;49.520;11.284;2023-05-08T01:32:18;97891.75;;;15.02;68.11
15932;BME280;8065;49.520;11.284;2023-05-08T01:34:54;97886.94;;;15.20;67.24
15932;BME280;8065;49.520;11.284;2023-05-08T01:37:28;97885.47;;;15.34;66.87
15932;BME280;8065;49.520;11.284;2023-05-08T01:40:01;97881.25;;;15.09;67.59
15932;BME280;8065;49.520;11.284;2023-05-08T01:42:38;97890.75;;;14.82;68.70
15932;BME280;8065;49.520;11.284;2023-05-08T01:45:14;97881.25;;;15.21;67.92
15932;BME280;8065;49.520;11.284;2023-05-08T01:47:49;97899.91;;;14.81;69.63
15932;BME280;8065;49.520;11.284;2023-05-08T01:50:31;97896.00;;;15.03;67.88
15932;BME280;8065;49.520;11.284;2023-05-08T01:53:04;97905.59;;;14.92;68.91
15932;BME280;8065;49.520;11.284;2023-05-08T01:55:34;97904.91;;;14.95;69.13
15932;BME280;8065;49.520;11.284;2023-05-08T01:58:05;97907.34;;;15.12;68.48
15932;BME280;8065;49.520;11.284;2023-05-08T02:00:32;97905.25;;;14.93;68.66
15932;BME280;8065;49.520;11.284;2023-05-08T02:03:01;97914.38;;;15.17;67.95
15932;BME280;8065;49.520;11.284;2023-05-08T02:05:32;97911.81;;;14.84;69.15
15932;BME280;8065;49.520;11.284;2023-05-08T02:08:02;97922.97;;;14.98;69.04
15932;BME280;8065;49.520;11.284;2023-05-08T02:10:30;97911.13;;;15.23;68.10
15932;BME280;8065;49.520;11.284;2023-05-08T02:12:58;97920.50;;;15.17;68.41
15932;BME280;8065;49.520;11.284;2023-05-08T02:15:27;97921.19;;;15.14;68.78
15932;BME280;8065;49.520;11.284;2023-05-08T02:17:55;97920.63;;;15.21;68.60
15932;BME280;8065;49.520;11.284;2023-05-08T02:20:25;97926.31;;;15.07;69.07
15932;BME280;8065;49.520;11.284;2023-05-08T02:22:53;97924.75;;;14.82;69.30
15932;BME280;8065;49.520;11.284;2023-05-08T02:25:20;97925.88;;;14.68;70.30
15932;BME280;8065;49.520;11.284;2023-05-08T02:27:48;97930.09;;;14.82;69.54
15932;BME280;8065;49.520;11.284;2023-05-08T02:30:16;97925.66;;;14.86;69.44
15932;BME280;8065;49.520;11.284;2023-05-08T02:32:44;97932.00;;;14.93;69.31
15932;BME280;8065;49.520;11.284;2023-05-08T02:35:13;97935.34;;;15.02;68.84
15932;BME280;8065;49.520;11.284;2023-05-08T02:37:44;97929.88;;;14.87;69.97
15932;BME280;8065;49.520;11.284;2023-05-08T02:40:11;97928.13;;;14.66;70.27
15932;BME280;8065;49.520;11.284;2023-05-08T02:42:39;97935.47;;;14.82;69.75
15932;BME280;8065;49.520;11.284;2023-05-08T02:45:07;97928.56;;;14.68;70.56
15932;BME280;8065;49.520;11.284;2023-05-08T02:47:38;97933.78;;;14.77;70.04
15932;BME280;8065;49.520;11.284;2023-05-08T02:50:12;97948.19;;;14.72;69.96
15932;BME280;8065;49.520;11.284;2023-05-08T02:52:44;97943.38;;;14.90;69.62
15932;BME280;8065;49.520;11.284;2023-05-08T02:55:21;97952.59;;;14.44;71.43
15932;BME280;8065;49.520;11.284;2023-05-08T02:57:58;97952.03;;;14.51;71.25
15932;BME280;8065;49.520;11.284;2023-05-08T03:00:31;97949.25;;;14.47;71.02
15932;BME280;8065;49.520;11.284;2023-05-08T03:03:06;97944.66;;;14.15;71.91
15932;BME280;8065;49.520;11.284;2023-05-08T03:05:36;97944.13;;;14.42;71.46
15932;BME280;8065;49.520;11.284;2023-05-08T03:08:06;97943.09;;;14.14;72.11
15932;BME280;8065;49.520;11.284;2023-05-08T03:10:35;97944.91;;;14.42;71.35
15932;BME280;8065;49.520;11.284;2023-05-08T03:13:04;97944.66;;;14.15;72.27
15932;BME280;8065;49.520;11.284;2023-05-08T03:15:36;97948.94;;;14.28;72.24
15932;BME280;8065;49.520;11.284;2023-05-08T03:18:10;97938.28;;;14.40;71.12
15932;BME280;8065;49.520;11.284;2023-05-08T03:20:40;97943.47;;;14.45;70.92
15932;BME280;8065;49.520;11.284;2023-05-08T03:23:11;97937.16;;;14.29;71.79
15932;BME280;8065;49.520;11.284;2023-05-08T03:25:40;97934.97;;;14.43;71.58
15932;BME280;8065;49.520;11.284;2023-05-08T03:28:08;97936.53;;;14.44;71.20
15932;BME280;8065;49.520;11.284;2023-05-08T03:30:36;97941.03;;;14.31;71.60
15932;BME280;8065;49.520;11.284;2023-05-08T03:33:03;97936.84;;;14.09;71.92
15932;BME280;8065;49.520;11.284;2023-05-08T03:35:34;97939.06;;;14.07;71.86
15932;BME280;8065;49.520;11.284;2023-05-08T03:38:01;97942.50;;;14.29;71.20
15932;BME280;8065;49.520;11.284;2023-05-08T03:40:29;97940.91;;;13.95;72.79
15932;BME280;8065;49.520;11.284;2023-05-08T03:42:56;97939.97;;;14.11;72.21
15932;BME280;8065;49.520;11.284;2023-05-08T03:45:23;97947.56;;;13.89;72.87
15932;BME280;8065;49.520;11.284;2023-05-08T03:47:52;97945.91;;;13.84;73.00
15932;BME280;8065;49.520;11.284;2023-05-08T03:50:19;97936.34;;;13.95;72.89
15932;BME280;8065;49.520;11.284;2023-05-08T03:52:45;97936.34;;;13.95;72.94
15932;BME280;8065;49.520;11.284;2023-05-08T03:55:12;97942.28;;;14.01;72.31
15932;BME280;8065;49.520;11.284;2023-05-08T03:57:58;97943.06;;;14.01;72.69
15932;BME280;8065;49.520;11.284;2023-05-08T04:00:32;97936.19;;;14.13;71.87
15932;BME280;8065;49.520;11.284;2023-05-08T04:03:11;97939.03;;;13.95;71.92
15932;BME280;8065;49.520;11.284;2023-05-08T04:05:46;97942.69;;;14.24;71.40
15932;BME280;8065;49.520;11.284;2023-05-08T04:08:18;97941.63;;;14.37;71.54
15932;BME280;8065;49.520;11.284;2023-05-08T04:10:48;97946.78;;;14.42;71.35
15932;BME280;8065;49.520;11.284;2023-05-08T04:13:21;97948.94;;;14.28;71.77
15932;BME280;8065;49.520;11.284;2023-05-08T04:15:51;97944.66;;;14.15;71.89
15932;BME280;8065;49.520;11.284;2023-05-08T04:18:21;97950.25;;;14.22;71.91
15932;BME280;8065;49.520;11.284;2023-05-08T04:20:53;97949.59;;;14.25;72.08
15932;BME280;8065;49.520;11.284;2023-05-08T04:23:22;97950.25;;;14.22;71.02
15932;BME280;8065;49.520;11.284;2023-05-08T04:25:50;97947.34;;;14.15;72.42
15932;BME280;8065;49.520;11.284;2023-05-08T04:28:19;97959.81;;;13.90;72.39
15932;BME280;8065;49.520;11.284;2023-05-08T04:30:46;97960.06;;;13.97;73.08
15932;BME280;8065;49.520;11.284;2023-05-08T04:33:14;97970.25;;;14.03;72.47
15932;BME280;8065;49.520;11.284;2023-05-08T04:35:42;97964.47;;;13.60;73.53
15932;BME280;8065;49.520;11.284;2023-05-08T04:38:10;97974.09;;;13.94;72.54
15932;BME280;8065;49.520;11.284;2023-05-08T04:40:36;97972.41;;;13.89;72.47
15932;BME280;8065;49.520;11.284;2023-05-08T04:43:03;97974.38;;;13.59;73.47
15932;BME280;8065;49.520;11.284;2023-05-08T04:45:31;97975.75;;;13.86;72.32
15932;BME280;8065;49.520;11.284;2023-05-08T04:47:57;97977.84;;;13.81;72.96
15932;BME280;8065;49.520;11.284;2023-05-08T04:50:24;97984.66;;;13.49;73.58
15932;BME280;8065;49.520;11.284;2023-05-08T04:52:50;97985.06;;;13.80;72.54
15932;BME280;8065;49.520;11.284;2023-05-08T04:55:17;97984.13;;;13.55;73.78
15932;BME280;8065;49.520;11.284;2023-05-08T04:57:43;97988.59;;;13.72;72.86
15932;BME280;8065;49.520;11.284;2023-05-08T05:00:10;97989.66;;;13.50;73.37
15932;BME280;8065;49.520;11.284;2023-05-08T05:02:39;97997.97;;;13.78;72.76
15932;BME280;8065;49.520;11.284;2023-05-08T05:05:06;97992.94;;;13.56;73.69
15932;BME280;8065;49.520;11.284;2023-05-08T05:07:32;97999.16;;;13.39;73.87
15932;BME280;8065;49.520;11.284;2023-05-08T05:09:59;97998.66;;;13.66;72.91
15932;BME280;8065;49.520;11.284;2023-05-08T05:12:26;97989.16;;;13.77;72.99
15932;BME280;8065;49.520;11.284;2023-05-08T05:14:52;97999.28;;;13.42;73.92
15932;BME280;8065;49.520;11.284;2023-05-08T05:17:18;97998.22;;;13.85;72.95
15932;BME280;8065;49.520;11.284;2023-05-08T05:19:47;98000.47;;;13.95;72.12
15932;BME280;8065;49.520;11.284;2023-05-08T05:22:13;97999.13;;;13.89;71.97
15932;BME280;8065;49.520;11.284;2023-05-08T05:24:40;97989.13;;;13.98;72.50
15932;BME280;8065;49.520;11.284;2023-05-08T05:27:06;97996.56;;;13.93;72.33
15932;BME280;8065;49.520;11.284;2023-05-08T05:29:32;97995.91;;;13.54;73.40
15932;BME280;8065;49.520;11.284;2023-05-08T05:32:00;97993.56;;;13.53;73.88
15932;BME280;8065;49.520;11.284;2023-05-08T05:34:27;97998.13;;;13.52;73.46
15932;BME280;8065;49.520;11.284;2023-05-08T05:36:55;97993.75;;;13.48;73.93
15932;BME280;8065;49.520;11.284;2023-05-08T05:39:21;97992.56;;;13.66;73.33
15932;BME280;8065;49.520;11.284;2023-05-08T05:41:48;98003.13;;;13.83;73.00
15932;BME280;8065;49.520;11.284;2023-05-08T05:44:14;98007.78;;;14.07;72.37
15932;BME280;8065;49.520;11.284;2023-05-08T05:46:41;98011.03;;;13.92;72.82
15932;BME280;8065;49.520;11.284;2023-05-08T05:49:07;98009.72;;;14.19;72.05
15932;BME280;8065;49.520;11.284;2023-05-08T05:51:33;98006.91;;;13.82;73.86
15932;BME280;8065;49.520;11.284;2023-05-08T05:54:01;98017.72;;;13.86;72.70
15932;BME280;8065;49.520;11.284;2023-05-08T05:56:28;98015.72;;;13.95;72.28
15932;BME280;8065;49.520;11.284;2023-05-08T05:58:54;98017.72;;;13.86;72.86
15932;BME280;8065;49.520;11.284;2023-05-08T06:01:21;98014.56;;;14.04;72.04
15932;BME280;8065;49.520;11.284;2023-05-08T06:03:48;98020.03;;;13.87;72.66
15932;BME280;8065;49.520;11.284;2023-05-08T06:06:15;98022.25;;;14.06;72.66
15932;BME280;8065;49.520;11.284;2023-05-08T06:08:42;98031.38;;;14.26;71.93
15932;BME280;8065;49.520;11.284;2023-05-08T06:11:10;98025.50;;;13.91;72.97
15932;BME280;8065;49.520;11.284;2023-05-08T06:13:38;98022.63;;;14.17;71.74
15932;BME280;8065;49.520;11.284;2023-05-08T06:16:05;98028.91;;;13.79;74.16
15932;BME280;8065;49.520;11.284;2023-05-08T06:18:32;98025.09;;;14.22;72.75
15932;BME280;8065;49.520;11.284;2023-05-08T06:20:59;98023.94;;;14.10;72.42
15932;BME280;8065;49.520;11.284;2023-05-08T06:23:25;98022.34;;;14.51;72.07
15932;BME280;8065;49.520;11.284;2023-05-08T06:25:52;98026.75;;;14.68;71.12
15932;BME280;8065;49.520;11.284;2023-05-08T06:28:20;98028.00;;;14.70;71.41
15932;BME280;8065;49.520;11.284;2023-05-08T06:30:48;98021.75;;;14.66;71.73
15932;BME280;8065;49.520;11.284;2023-05-08T06:33:15;98018.75;;;14.92;71.23
15932;BME280;8065;49.520;11.284;2023-05-08T06:35:44;98023.53;;;14.87;70.27
15932;BME280;8065;49.520;11.284;2023-05-08T06:38:11;98028.66;;;14.80;71.01
15932;BME280;8065;49.520;11.284;2023-05-08T06:40:40;98030.31;;;14.60;71.22
15932;BME280;8065;49.520;11.284;2023-05-08T06:43:07;98031.25;;;14.43;72.86
15932;BME280;8065;49.520;11.284;2023-05-08T06:45:35;98030.56;;;14.91;70.22
15932;BME280;8065;49.520;11.284;2023-05-08T06:48:01;98020.63;;;14.67;71.79
15932;BME280;8065;49.520;11.284;2023-05-08T06:50:28;98028.03;;;15.07;70.37
15932;BME280;8065;49.520;11.284;2023-05-08T06:52:55;98018.00;;;15.16;70.35
15932;BME280;8065;49.520;11.284;2023-05-08T06:55:22;98014.31;;;15.33;69.75
15932;BME280;8065;49.520;11.284;2023-05-08T06:57:48;98017.91;;;15.37;70.09
15932;BME280;8065;49.520;11.284;2023-05-08T07:00:15;98024.69;;;15.10;70.50
15932;BME280;8065;49.520;11.284;2023-05-08T07:02:43;98016.13;;;15.41;70.28
15932;BME280;8065;49.520;11.284;2023-05-08T07:05:09;98018.00;;;15.53;69.88
15932;BME280;8065;49.520;11.284;2023-05-08T07:07:36;98017.91;;;15.25;70.02
15932;BME280;8065;49.520;11.284;2023-05-08T07:10:02;98015.53;;;15.72;68.88
15932;BME280;8065;49.520;11.284;2023-05-08T07:12:29;98022.31;;;16.22;68.36
15932;BME280;8065;49.520;11.284;2023-05-08T07:14:55;98030.59;;;16.17;68.21
15932;BME280;8065;49.520;11.284;2023-05-08T07:17:22;98022.25;;;15.41;70.26
15932;BME280;8065;49.520;11.284;2023-05-08T07:19:50;98022.69;;;16.08;68.92
15932;BME280;8065;49.520;11.284;2023-05-08T07:22:17;98019.78;;;16.41;67.51
15932;BME280;8065;49.520;11.284;2023-05-08T07:24:45;98029.13;;;16.47;68.36
15932;BME280;8065;49.520;11.284;2023-05-08T07:27:11;98019.28;;;16.51;68.08
15932;BME280;8065;49.520;11.284;2023-05-08T07:29:38;98023.59;;;16.40;67.42
15932;BME280;8065;49.520;11.284;2023-05-08T07:32:06;98030.53;;;16.41;67.13
15932;BME280;8065;49.520;11.284;2023-05-08T07:34:33;98031.09;;;16.06;68.46
15932;BME280;8065;49.520;11.284;2023-05-08T07:37:01;98031.66;;;16.56;67.18
15932;BME280;8065;49.520;11.284;2023-05-08T07:39:28;98028.84;;;16.64;67.34
15932;BME280;8065;49.520;11.284;2023-05-08T07:41:54;98026.97;;;16.81;66.42
15932;BME280;8065;49.520;11.284;2023-05-08T07:44:20;98023.44;;;17.08;65.91
15932;BME280;8065;49.520;11.284;2023-05-08T07:46:47;98031.94;;;17.10;66.00
15932;BME280;8065;49.520;11.284;2023-05-08T07:49:13;98027.69;;;17.09;65.13
15932;BME280;8065;49.520;11.284;2023-05-08T07:51:40;98031.41;;;16.89;66.41
15932;BME280;8065;49.520;11.284;2023-05-08T07:54:07;98031.22;;;16.82;66.56
15932;BME280;8065;49.520;11.284;2023-05-08T07:56:34;98041.78;;;16.75;67.47
15932;BME280;8065;49.520;11.284;2023-05-08T07:59:00;98040.94;;;16.58;66.97
15932;BME280;8065;49.520;11.284;2023-05-08T08:01:27;98027.94;;;16.88;66.84
15932;BME280;8065;49.520;11.284;2023-05-08T08:03:53;98033.97;;;16.69;67.03
15932;BME280;8065;49.520;11.284;2023-05-08T08:06:20;98033.38;;;17.39;65.29
15932;BME280;8065;49.520;11.284;2023-05-08T08:08:46;98030.72;;;17.08;66.19
15932;BME280;8065;49.520;11.284;2023-05-08T08:11:14;98036.19;;;17.11;65.11
15932;BME280;8065;49.520;11.284;2023-05-08T08:13:40;98032.84;;;17.33;65.04
15932;BME280;8065;49.520;11.284;2023-05-08T08:16:07;98035.81;;;16.97;66.33
15932;BME280;8065;49.520;11.284;2023-05-08T08:18:35;98037.22;;;17.22;65.91
15932;BME280;8065;49.520;11.284;2023-05-08T08:21:04;98036.03;;;17.55;65.47
15932;BME280;8065;49.520;11.284;2023-05-08T08:23:30;98035.19;;;17.66;64.93
15932;BME280;8065;49.520;11.284;2023-05-08T08:25:57;98035.59;;;17.84;64.28
15932;BME280;8065;49.520;11.284;2023-05-08T08:28:25;98032.84;;;18.00;63.91
15932;BME280;8065;49.520;11.284;2023-05-08T08:30:51;98034.97;;;18.10;64.39
15932;BME280;8065;49.520;11.284;2023-05-08T08:33:17;98033.94;;;17.80;64.63
15932;BME280;8065;49.520;11.284;2023-05-08T08:35:44;98039.13;;;17.88;63.86
15932;BME280;8065;49.520;11.284;2023-05-08T08:38:10;98033.53;;;17.62;65.09
15932;BME280;8065;49.520;11.284;2023-05-08T08:40:38;98042.13;;;17.67;65.07
15932;BME280;8065;49.520;11.284;2023-05-08T08:43:04;98032.56;;;18.05;64.40
15932;BME280;8065;49.520;11.284;2023-05-08T08:45:32;98032.66;;;18.09;64.40
15932;BME280;8065;49.520;11.284;2023-05-08T08:48:00;98030.94;;;18.00;64.84
15932;BME280;8065;49.520;11.284;2023-05-08T08:50:28;98028.94;;;18.36;63.54
15932;BME280;8065;49.520;11.284;2023-05-08T08:53:00;98030.34;;;18.30;63.83
15932;BME280;8065;49.520;11.284;2023-05-08T08:55:31;98029.78;;;18.40;63.80
15932;BME280;8065;49.520;11.284;2023-05-08T08:58:06;98033.47;;;18.32;63.51
15932;BME280;8065;49.520;11.284;2023-05-08T09:00:40;98036.91;;;17.75;65.27
15932;BME280;8065;49.520;11.284;2023-05-08T09:03:07;98035.47;;;18.16;64.53
15932;BME280;8065;49.520;11.284;2023-05-08T09:05:33;98025.44;;;18.55;64.26
15932;BME280;8065;49.520;11.284;2023-05-08T09:08:00;98034.63;;;18.92;63.66
15932;BME280;8065;49.520;11.284;2023-05-08T09:10:26;98028.22;;;19.01;62.90
15932;BME280;8065;49.520;11.284;2023-05-08T09:12:53;98028.06;;;19.16;62.63
15932;BME280;8065;49.520;11.284;2023-05-08T09:15:20;98023.03;;;19.38;62.25
15932;BME280;8065;49.520;11.284;2023-05-08T09:17:47;98032.72;;;19.65;61.30
15932;BME280;8065;49.520;11.284;2023-05-08T09:20:15;98030.91;;;19.50;61.16
15932;BME280;8065;49.520;11.284;2023-05-08T09:22:42;98025.88;;;19.71;61.64
15932;BME280;8065;49.520;11.284;2023-05-08T09:25:09;98029.44;;;19.52;61.67
15932;BME280;8065;49.520;11.284;2023-05-08T09:27:35;98032.97;;;19.33;61.81
15932;BME280;8065;49.520;11.284;2023-05-08T09:30:04;98025.59;;;19.04;62.70
15932;BME280;8065;49.520;11.284;2023-05-08T09:32:32;98027.56;;;19.56;61.78
15932;BME280;8065;49.520;11.284;2023-05-08T09:35:01;98027.81;;;19.48;62.65
15932;BME280;8065;49.520;11.284;2023-05-08T09:37:28;98034.31;;;18.75;63.11
15932;BME280;8065;49.520;11.284;2023-05-08T09:40:12;98027.47;;;19.26;62.26
15932;BME280;8065;49.520;11.284;2023-05-08T09:42:38;98020.69;;;19.59;61.95
15932;BME280;8065;49.520;11.284;2023-05-08T09:45:06;98018.25;;;19.77;61.92
15932;BME280;8065;49.520;11.284;2023-05-08T09:47:33;98028.97;;;19.73;61.69
15932;BME280;8065;49.520;11.284;2023-05-08T09:50:04;98033.34;;;19.55;62.22
15932;BME280;8065;49.520;11.284;2023-05-08T09:52:32;98020.06;;;19.99;61.32
15932;BME280;8065;49.520;11.284;2023-05-08T09:55:00;98021.50;;;19.89;61.28
15932;BME280;8065;49.520;11.284;2023-05-08T09:57:28;98029.50;;;20.16;60.68
15932;BME280;8065;49.520;11.284;2023-05-08T10:00:03;98030.06;;;19.98;61.11
15932;BME280;8065;49.520;11.284;2023-05-08T10:02:32;98039.91;;;19.35;62.55
15932;BME280;8065;49.520;11.284;2023-05-08T10:04:58;98036.91;;;19.40;62.24
15932;BME280;8065;49.520;11.284;2023-05-08T10:07:30;98030.25;;;20.13;61.14
15932;BME280;8065;49.520;11.284;2023-05-08T10:09:58;98022.47;;;20.08;60.83
15932;BME280;8065;49.520;11.284;2023-05-08T10:12:25;98028.59;;;20.05;61.24
15932;BME280;8065;49.520;11.284;2023-05-08T10:14:52;98027.28;;;20.21;61.06
15932;BME280;8065;49.520;11.284;2023-05-08T10:17:24;98030.09;;;20.32;61.47
15932;BME280;8065;49.520;11.284;2023-05-08T10:19:54;98026.06;;;19.85;61.61
15932;BME280;8065;49.520;11.284;2023-05-08T10:22:24;98030.44;;;19.67;62.52
15932;BME280;8065;49.520;11.284;2023-05-08T10:24:55;98020.56;;;19.52;62.37
15932;BME280;8065;49.520;11.284;2023-05-08T10:27:29;98023.06;;;19.94;61.63
15932;BME280;8065;49.520;11.284;2023-05-08T10:30:00;98023.16;;;20.31;61.40
15932;BME280;8065;49.520;11.284;2023-05-08T10:32:31;98022.28;;;19.93;61.34
15932;BME280;8065;49.520;11.284;2023-05-08T10:35:02;98026.25;;;20.33;61.34
15932;BME280;8065;49.520;11.284;2023-05-08T10:37:29;98019.63;;;20.27;60.84
15932;BME280;8065;49.520;11.284;2023-05-08T10:39:58;98028.41;;;20.20;62.09
15932;BME280;8065;49.520;11.284;2023-05-08T10:42:26;98019.91;;;20.89;60.44
15932;BME280;8065;49.520;11.284;2023-05-08T10:44:53;98022.91;;;20.80;60.91
15932;BME280;8065;49.520;11.284;2023-05-08T10:47:24;98015.69;;;20.91;59.89
15932;BME280;8065;49.520;11.284;2023-05-08T10:50:00;98017.53;;;21.24;59.47
15932;BME280;8065;49.520;11.284;2023-05-08T10:52:33;98019.97;;;21.40;58.95
15932;BME280;8065;49.520;11.284;2023-05-08T10:55:19;98008.97;;;21.74;58.69
15932;BME280;8065;49.520;11.284;2023-05-08T10:58:05;98007.94;;;22.00;58.50
15932;BME280;8065;49.520;11.284;2023-05-08T11:01:12;98011.22;;;21.61;58.11
15932;BME280;8065;49.520;11.284;2023-05-08T11:03:42;98008.31;;;21.33;58.31
15932;BME280;8065;49.520;11.284;2023-05-08T11:06:09;98006.16;;;21.52;58.28
15932;BME280;8065;49.520;11.284;2023-05-08T11:08:44;98006.38;;;21.30;59.48
15932;BME280;8065;49.520;11.284;2023-05-08T11:11:19;98007.50;;;21.25;59.36
15932;BME280;8065;49.520;11.284;2023-05-08T11:13:51;98009.59;;;21.46;58.73
15932;BME280;8065;49.520;11.284;2023-05-08T11:17:05;98013.94;;;21.61;59.22
15932;BME280;8065;49.520;11.284;2023-05-08T11:19:32;98010.13;;;21.76;58.74
15932;BME280;8065;49.520;11.284;2023-05-08T11:22:23;98010.09;;;21.66;59.36
15932;BME280;8065;49.520;11.284;2023-05-08T11:24:58;98008.97;;;21.77;58.86
15932;BME280;8065;49.520;11.284;2023-05-08T11:27:37;97999.16;;;22.17;57.99
15932;BME280;8065;49.520;11.284;2023-05-08T11:30:35;98003.94;;;21.76;59.04
15932;BME280;8065;49.520;11.284;2023-05-08T11:33:13;98003.59;;;21.84;57.61
15932;BME280;8065;49.520;11.284;2023-05-08T11:35:41;98002.75;;;21.66;58.67
15932;BME280;8065;49.520;11.284;2023-05-08T11:38:10;97997.00;;;21.78;58.37
15932;BME280;8065;49.520;11.284;2023-05-08T11:40:54;97991.03;;;22.17;58.61
15932;BME280;8065;49.520;11.284;2023-05-08T11:43:25;97989.19;;;22.56;58.14
15932;BME280;8065;49.520;11.284;2023-05-08T11:45:52;97991.09;;;22.38;56.83
15932;BME280;8065;49.520;11.284;2023-05-08T11:48:21;97990.28;;;21.51;58.39
15932;BME280;8065;49.520;11.284;2023-05-08T11:50:48;97990.91;;;21.99;58.10
15932;BME280;8065;49.520;11.284;2023-05-08T11:53:15;97997.47;;;21.95;57.80
15932;BME280;8065;49.520;11.284;2023-05-08T11:55:42;97992.97;;;22.20;57.19
15932;BME280;8065;49.520;11.284;2023-05-08T11:58:12;97994.72;;;21.84;57.90
15932;BME280;8065;49.520;11.284;2023-05-08T12:00:39;97990.94;;;21.34;59.27
15932;BME280;8065;49.520;11.284;2023-05-08T12:03:11;97990.34;;;21.10;59.38
15932;BME280;8065;49.520;11.284;2023-05-08T12:05:39;97996.09;;;21.53;58.10
15932;BME280;8065;49.520;11.284;2023-05-08T12:08:06;97994.63;;;21.63;58.85
15932;BME280;8065;49.520;11.284;2023-05-08T12:10:38;97992.97;;;21.47;58.91
15932;BME280;8065;49.520;11.284;2023-05-08T12:13:14;97994.50;;;21.45;58.92
15932;BME280;8065;49.520;11.284;2023-05-08T12:15:41;97987.72;;;21.76;58.54
15932;BME280;8065;49.520;11.284;2023-05-08T12:18:07;97987.81;;;21.93;58.55
15932;BME280;8065;49.520;11.284;2023-05-08T12:20:34;97989.34;;;21.95;58.51
15932;BME280;8065;49.520;11.284;2023-05-08T12:23:02;97988.25;;;22.03;58.19
15932;BME280;8065;49.520;11.284;2023-05-08T12:25:32;97993.31;;;22.08;58.02
15932;BME280;8065;49.520;11.284;2023-05-08T12:27:59;97990.84;;;21.81;58.51
15932;BME280;8065;49.520;11.284;2023-05-08T12:30:26;97989.84;;;22.11;57.69
15932;BME280;8065;49.520;11.284;2023-05-08T12:32:52;97989.91;;;22.29;57.66
15932;BME280;8065;49.520;11.284;2023-05-08T12:35:20;97986.50;;;22.53;57.61
15932;BME280;8065;49.520;11.284;2023-05-08T12:37:49;97995.78;;;21.65;58.08
15932;BME280;8065;49.520;11.284;2023-05-08T12:40:26;97992.25;;;21.54;58.91
15932;BME280;8065;49.520;11.284;2023-05-08T12:42:53;97983.91;;;21.87;57.48
15932;BME280;8065;49.520;11.284;2023-05-08T12:45:22;97984.03;;;22.09;57.76
15932;BME280;8065;49.520;11.284;2023-05-08T12:47:52;97981.03;;;22.42;57.93
15932;BME280;8065;49.520;11.284;2023-05-08T12:50:20;97984.56;;;22.68;56.77
15932;BME280;8065;49.520;11.284;2023-05-08T12:52:47;97984.56;;;22.75;56.85
15932;BME280;8065;49.520;11.284;2023-05-08T12:55:26;97990.03;;;22.82;56.71
15932;BME280;8065;49.520;11.284;2023-05-08T12:58:00;97983.44;;;22.86;56.18
15932;BME280;8065;49.520;11.284;2023-05-08T13:00:35;97987.31;;;22.96;55.10
15932;BME280;8065;49.520;11.284;2023-05-08T13:03:02;97985.78;;;22.88;55.82
15932;BME280;8065;49.520;11.284;2023-05-08T13:05:29;97985.28;;;22.40;56.06
15932;BME280;8065;49.520;11.284;2023-05-08T13:07:58;97988.81;;;22.65;56.03
15932;BME280;8065;49.520;11.284;2023-05-08T13:10:42;97983.00;;;22.52;56.37
15932;BME280;8065;49.520;11.284;2023-05-08T13:13:08;97987.31;;;22.89;55.77